Time;durP1;ratioP1;P1;durP2;ratioP2;P2;SDS_P1;SDS_P2;PMS_P1;PMS_P2;Temp;Humidity;BMP_temperature;BMP_pressure;BME280_temperature;BME280_humidity;BME280_pressure;Samples;Min_cycle;Max_cycle;Signal;HPM_P1;HPM_P2
2022/04/25 00:01:49;;;;;;;6.27;6.17;;;;;;;7.75;100.00;100177.97;5115528;28;20196;-73
2022/04/25 00:04:17;;;;;;;6.27;6.17;;;;;;;7.78;100.00;100169.19;5115618;28;20264;-73
2022/04/25 00:06:50;;;;;;;6.60;6.40;;;;;;;7.87;100.00;100166.25;5115707;28;20256;-74
2022/04/25 00:09:18;;;;;;;5.20;5.03;;;;;;;7.78;100.00;100175.22;5115390;28;20193;-73
2022/04/25 00:11:45;;;;;;;5.80;5.70;;;;;;;7.83;100.00;100168.09;5115924;28;20181;-74
2022/04/25 00:14:14;;;;;;;5.43;5.43;;;;;;;7.81;100.00;100156.91;5115188;28;20188;-73
2022/04/25 00:16:42;;;;;;;6.10;5.67;;;;;;;7.82;100.00;100150.75;5115453;28;20216;-73
2022/04/25 00:19:09;;;;;;;6.17;6.07;;;;;;;7.78;100.00;100159.59;5115723;28;20199;-72
2022/04/25 00:21:37;;;;;;;6.57;6.37;;;;;;;7.79;100.00;100161.31;5115118;28;20181;-72
2022/04/25 00:24:05;;;;;;;8.53;8.10;;;;;;;7.82;100.00;100155.13;5115061;28;20188;-70
2022/04/25 00:26:33;;;;;;;7.90;7.67;;;;;;;7.80;100.00;100152.59;5114973;28;20212;-72
2022/04/25 00:29:00;;;;;;;7.80;7.53;;;;;;;7.75;100.00;100164.09;5097260;28;20249;-73
2022/04/25 00:31:28;;;;;;;8.53;8.10;;;;;;;7.74;100.00;100160.66;5115209;28;20271;-73
2022/04/25 00:33:55;;;;;;;8.93;8.50;;;;;;;7.76;100.00;100163.19;5115448;28;20190;-72
2022/04/25 00:36:23;;;;;;;8.80;8.53;;;;;;;7.69;100.00;100157.34;5115247;28;20205;-72
2022/04/25 00:38:50;;;;;;;10.37;9.47;;;;;;;7.70;100.00;100152.09;5114748;28;20195;-72
2022/04/25 00:41:18;;;;;;;9.60;9.00;;;;;;;7.68;100.00;100148.69;5113771;28;20242;-71
2022/04/25 00:43:45;;;;;;;9.33;8.93;;;;;;;7.54;100.00;100144.91;5115333;28;20177;-72
2022/04/25 00:46:25;;;;;;;8.53;8.23;;;;;;;7.55;100.00;100144.00;5114601;28;20258;-72
2022/04/25 00:48:53;;;;;;;8.57;8.27;;;;;;;7.40;100.00;100128.06;5115183;28;20210;-71
2022/04/25 00:51:20;;;;;;;8.13;7.77;;;;;;;7.51;100.00;100124.22;5114868;28;20555;-72
2022/04/25 00:53:48;;;;;;;8.40;7.97;;;;;;;7.54;100.00;100113.66;5114812;28;20195;-73
2022/04/25 00:56:17;;;;;;;8.00;7.57;;;;;;;7.48;100.00;100108.69;5114595;28;20223;-72
2022/04/25 00:58:46;;;;;;;5.90;5.80;;;;;;;7.52;100.00;100095.50;5114408;28;20185;-72
2022/04/25 01:01:16;;;;;;;6.17;6.00;;;;;;;7.53;100.00;100091.13;5114671;28;20192;-72
2022/04/25 01:03:44;;;;;;;5.53;5.43;;;;;;;7.48;100.00;100103.47;5114096;28;20212;-71
2022/04/25 01:06:11;;;;;;;7.07;6.27;;;;;;;7.55;100.00;100111.00;5114497;28;20656;-71
2022/04/25 01:08:39;;;;;;;5.70;5.40;;;;;;;7.51;100.00;100119.84;5114540;28;20184;-71
2022/04/25 01:11:07;;;;;;;5.83;5.73;;;;;;;7.64;100.00;100118.47;5114202;28;20193;-71
2022/04/25 01:13:35;;;;;;;6.53;6.37;;;;;;;7.59;100.00;100109.97;5114488;28;20637;-72
2022/04/25 01:16:02;;;;;;;6.80;6.67;;;;;;;7.54;100.00;100114.50;5114286;28;20670;-71
2022/04/25 01:18:30;;;;;;;6.13;6.03;;;;;;;7.53;100.00;100127.59;5114100;28;20720;-71
2022/04/25 01:20:58;;;;;;;6.50;6.40;;;;;;;7.61;100.00;100130.75;5114577;28;20192;-71
2022/04/25 01:29:01;;;;;;;6.83;6.60;;;;;;;7.60;100.00;100150.75;5113998;28;20663;-71
2022/04/25 01:31:28;;;;;;;6.47;6.37;;;;;;;7.66;100.00;100145.31;5113976;28;20216;-71
2022/04/25 01:33:56;;;;;;;5.87;5.77;;;;;;;7.71;100.00;100147.72;5113900;28;20196;-71
2022/04/25 01:36:24;;;;;;;6.67;6.57;;;;;;;7.69;100.00;100162.56;5113975;28;20211;-71
2022/04/25 01:38:57;;;;;;;7.50;6.73;;;;;;;7.62;100.00;100155.91;5114035;28;20263;-71
2022/04/25 01:41:27;;;;;;;7.17;6.97;;;;;;;7.67;100.00;100162.63;5113806;28;20176;-71
2022/04/25 01:43:54;;;;;;;7.33;7.10;;;;;;;7.64;100.00;100154.06;5113731;28;20209;-71
2022/04/25 01:46:22;;;;;;;7.20;7.00;;;;;;;7.57;100.00;100157.81;5113933;28;20200;-71
2022/04/25 01:48:49;;;;;;;7.97;7.60;;;;;;;7.58;100.00;100165.59;5113720;28;20208;-71
2022/04/25 01:51:16;;;;;;;7.53;7.27;;;;;;;7.63;100.00;100165.41;5113970;28;20184;-71
2022/04/25 01:53:44;;;;;;;7.37;7.13;;;;;;;7.62;100.00;100161.09;5120082;28;20714;-71
2022/04/25 01:56:11;;;;;;;8.27;7.87;;;;;;;7.65;100.00;100159.25;5120378;28;20694;-71
2022/04/25 01:58:39;;;;;;;6.90;6.70;;;;;;;7.65;100.00;100161.00;5120712;28;20187;-71
2022/04/25 02:01:07;;;;;;;7.43;7.23;;;;;;;7.71;100.00;100155.53;5120401;28;20185;-71
2022/04/25 02:03:35;;;;;;;7.53;7.10;;;;;;;7.69;100.00;100165.19;5120392;28;20186;-71
2022/04/25 02:06:02;;;;;;;7.43;7.13;;;;;;;7.77;100.00;100159.66;5120334;28;20181;-71
2022/04/25 02:08:30;;;;;;;7.00;6.50;;;;;;;7.73;100.00;100158.94;5120913;28;20181;-70
2022/04/25 02:13:43;;;;;;;6.83;6.57;;;;;;;7.76;100.00;100155.38;5120847;28;20181;-70
2022/04/25 02:16:11;;;;;;;7.70;7.33;;;;;;;7.73;100.00;100156.34;5120166;28;20582;-71
2022/04/25 02:18:41;;;;;;;7.30;7.00;;;;;;;7.71;100.00;100145.09;5120572;28;20185;-71
2022/04/25 02:21:12;;;;;;;6.97;6.70;;;;;;;7.74;100.00;100145.00;5120860;28;20184;-70
2022/04/25 02:23:41;;;;;;;6.57;6.47;;;;;;;7.73;100.00;100148.53;5120847;28;20193;-70
2022/04/25 02:26:09;;;;;;;6.37;6.27;;;;;;;7.73;100.00;100145.94;5120145;28;20208;-71
2022/04/25 02:28:38;;;;;;;8.23;7.87;;;;;;;7.75;100.00;100138.88;5120186;28;20183;-71
2022/04/25 02:31:07;;;;;;;9.20;8.63;;;;;;;7.83;100.00;100138.59;5120200;28;20561;-71
2022/04/25 02:33:36;;;;;;;8.07;7.73;;;;;;;7.79;100.00;100153.50;5120152;28;20185;-71
2022/04/25 02:36:04;;;;;;;8.27;7.93;;;;;;;7.76;100.00;100140.56;5119981;28;20208;-71
2022/04/25 02:38:39;;;;;;;8.60;8.17;;;;;;;7.70;100.00;100140.81;5120149;28;20223;-71
2022/04/25 02:41:09;;;;;;;8.20;7.90;;;;;;;7.72;100.00;100149.44;5120671;28;20176;-71
2022/04/25 02:43:38;;;;;;;8.00;7.80;;;;;;;7.79;100.00;100145.69;5119967;28;20564;-70
2022/04/25 02:46:08;;;;;;;8.50;8.10;;;;;;;7.80;100.00;100147.38;5120045;28;20545;-70
2022/04/25 02:48:40;;;;;;;8.43;8.10;;;;;;;7.78;100.00;100149.19;5120303;28;20534;-70
2022/04/25 02:51:09;;;;;;;9.30;8.90;;;;;;;7.72;100.00;100150.28;5119897;28;20606;-70
2022/04/25 02:53:37;;;;;;;9.43;8.93;;;;;;;7.69;100.00;100150.38;5120176;28;20744;-70
2022/04/25 02:56:05;;;;;;;8.07;7.43;;;;;;;7.73;100.00;100145.94;5119813;28;20580;-70
2022/04/25 02:58:38;;;;;;;7.67;7.43;;;;;;;7.78;100.00;100146.56;5120204;28;20580;-70
2022/04/25 03:01:06;;;;;;;8.77;8.10;;;;;;;7.80;100.00;100138.72;5119931;28;20184;-70
2022/04/25 03:03:36;;;;;;;9.17;8.70;;;;;;;7.88;100.00;100139.25;5118305;28;20560;-70
2022/04/25 03:06:06;;;;;;;9.70;9.30;;;;;;;7.92;100.00;100138.22;5116421;28;20722;-71
2022/04/25 03:08:34;;;;;;;8.83;8.33;;;;;;;7.91;100.00;100134.75;5116872;28;20264;-70
2022/04/25 03:11:04;;;;;;;8.80;8.43;;;;;;;7.94;100.00;100134.66;5116837;28;20189;-70
2022/04/25 03:13:34;;;;;;;9.20;8.73;;;;;;;7.95;100.00;100130.28;5117041;28;20185;-70
2022/04/25 03:16:04;;;;;;;9.73;9.07;;;;;;;8.01;100.00;100130.06;5116331;28;20228;-70
2022/04/25 03:18:32;;;;;;;10.20;9.47;;;;;;;8.07;100.00;100126.31;5116372;28;20654;-70
2022/04/25 03:20:59;;;;;;;9.67;9.10;;;;;;;8.03;100.00;100128.22;5116916;28;20196;-70
2022/04/25 03:23:28;;;;;;;9.40;8.97;;;;;;;8.05;100.00;100128.16;5116331;28;20199;-70
2022/04/25 03:25:56;;;;;;;9.80;9.37;;;;;;;8.07;100.00;100129.78;5116178;28;20177;-70
2022/04/25 03:28:24;;;;;;;9.90;9.50;;;;;;;8.04;100.00;100121.25;5116483;28;20181;-70
2022/04/25 03:30:51;;;;;;;10.17;9.47;;;;;;;8.06;100.00;100125.47;5116457;28;20188;-70
2022/04/25 03:33:19;;;;;;;11.07;10.47;;;;;;;8.06;100.00;100125.47;5116696;28;20199;-70
2022/04/25 03:35:47;;;;;;;11.90;10.90;;;;;;;8.05;100.00;100121.19;5116233;28;20201;-70
2022/04/25 03:38:17;;;;;;;10.60;9.73;;;;;;;8.05;100.00;100126.38;5116058;28;20204;-71
2022/04/25 03:40:45;;;;;;;10.13;9.67;;;;;;;8.06;100.00;100128.09;5116265;28;20169;-71
2022/04/25 03:43:14;;;;;;;10.20;9.60;;;;;;;8.07;100.00;100131.53;5116228;28;20185;-70
2022/04/25 03:45:42;;;;;;;9.50;9.20;;;;;;;7.92;100.00;100133.84;5116180;28;20181;-70
2022/04/25 03:48:10;;;;;;;9.70;9.40;;;;;;;8.07;100.00;100128.94;5115891;28;20208;-70
2022/04/25 03:50:38;;;;;;;10.90;10.07;;;;;;;8.04;100.00;100129.06;5116028;28;20185;-70
2022/04/25 03:53:13;;;;;;;10.10;9.57;;;;;;;8.05;100.00;100131.59;5115994;28;20266;-70
2022/04/25 03:58:27;;;;;;;9.93;9.40;;;;;;;7.88;100.00;100140.09;5116011;28;20181;-70
2022/04/25 04:00:55;;;;;;;11.00;10.20;;;;;;;7.89;100.00;100138.34;5116134;28;20195;-70
2022/04/25 04:03:23;;;;;;;11.47;10.80;;;;;;;7.89;100.00;100146.16;5116073;28;20192;-70
2022/04/25 04:05:53;;;;;;;11.10;10.43;;;;;;;7.90;100.00;100146.09;5115664;28;20165;-70
2022/04/25 04:08:20;;;;;;;10.40;9.60;;;;;;;7.95;100.00;100154.59;5116007;28;20285;-70
2022/04/25 04:10:50;;;;;;;11.33;10.53;;;;;;;7.94;100.00;100163.31;5115660;28;20185;-70
2022/04/25 04:13:18;;;;;;;11.60;10.80;;;;;;;7.89;100.00;100167.88;5115853;28;20184;-70
2022/04/25 04:15:45;;;;;;;11.97;11.27;;;;;;;7.94;100.00;100165.94;5114988;28;20228;-70
2022/04/25 04:18:15;;;;;;;12.33;11.53;;;;;;;7.89;100.00;100180.91;5115486;28;20189;-70
2022/04/25 04:20:42;;;;;;;11.93;11.23;;;;;;;7.97;100.00;100178.84;5115452;28;20209;-70
2022/04/25 04:23:10;;;;;;;11.77;11.00;;;;;;;7.93;100.00;100174.66;5115172;28;20207;-71
2022/04/25 04:25:37;;;;;;;12.33;11.50;;;;;;;7.97;100.00;100168.41;5115715;28;20205;-71
2022/04/25 04:28:06;;;;;;;14.60;13.20;;;;;;;8.00;100.00;100180.47;5115250;28;20205;-71
2022/04/25 04:30:34;;;;;;;15.50;14.20;;;;;;;7.99;100.00;100169.19;5115603;28;20207;-72
2022/04/25 04:33:02;;;;;;;18.03;14.53;;;;;;;7.95;100.00;100167.63;5114889;28;20177;-72
2022/04/25 04:38:15;;;;;;;12.80;11.93;;;;;;;8.05;100.00;100178.53;5114858;28;20197;-72
2022/04/25 04:40:42;;;;;;;14.73;13.00;;;;;;;8.14;100.00;100185.97;5114769;28;20185;-72
2022/04/25 04:43:10;;;;;;;14.77;13.50;;;;;;;8.14;100.00;100182.53;5114743;28;20675;-72
2022/04/25 04:45:37;;;;;;;15.87;14.37;;;;;;;8.15;100.00;100192.06;5114936;28;20657;-72
2022/04/25 04:48:05;;;;;;;15.50;14.27;;;;;;;8.21;100.00;100197.00;5114585;28;20706;-72
2022/04/25 04:50:35;;;;;;;15.83;14.27;;;;;;;8.20;100.00;100203.16;5114618;28;20654;-72
2022/04/25 04:53:03;;;;;;;15.13;14.00;;;;;;;8.19;100.00;100206.66;5096618;28;20193;-72
2022/04/25 04:55:31;;;;;;;14.77;13.43;;;;;;;8.20;100.00;100208.38;5114748;28;20651;-72
2022/04/25 04:58:00;;;;;;;14.53;13.13;;;;;;;8.22;100.00;100217.00;5096372;28;20584;-72
2022/04/25 05:00:28;;;;;;;16.13;14.63;;;;;;;8.23;100.00;100219.53;5114414;28;20643;-72
2022/04/25 05:02:56;;;;;;;15.83;14.43;;;;;;;8.26;100.00;100222.00;5096126;28;20193;-72
2022/04/25 05:05:25;;;;;;;15.87;14.27;;;;;;;8.31;100.00;100226.22;5114279;28;20185;-72
2022/04/25 05:07:52;;;;;;;16.90;15.23;;;;;;;8.32;100.00;100231.34;5114246;28;20701;-72
2022/04/25 05:10:20;;;;;;;15.07;13.63;;;;;;;8.35;100.00;100223.44;5114249;28;20690;-72
2022/04/25 05:12:56;;;;;;;15.50;14.10;;;;;;;8.35;100.00;100236.47;5114182;28;20186;-72
2022/04/25 05:15:24;;;;;;;15.60;13.97;;;;;;;8.34;100.00;100241.72;5114406;28;20172;-72
2022/04/25 05:17:54;;;;;;;14.20;13.03;;;;;;;8.33;100.00;100238.28;5114052;28;20679;-71
2022/04/25 05:20:23;;;;;;;16.73;14.53;;;;;;;8.35;100.00;100243.41;5114081;28;20655;-71
2022/04/25 05:22:52;;;;;;;16.40;14.70;;;;;;;8.38;100.00;100249.41;5114583;28;20216;-71
2022/04/25 05:25:23;;;;;;;15.73;14.43;;;;;;;8.38;100.00;100246.81;5114271;28;20185;-71
2022/04/25 05:27:58;;;;;;;15.70;14.27;;;;;;;8.38;100.00;100248.56;5112891;28;20288;-71
2022/04/25 05:30:32;;;;;;;16.70;14.33;;;;;;;8.46;100.00;100247.34;5114077;28;20582;-71
2022/04/25 05:33:02;;;;;;;14.63;13.30;;;;;;;8.40;100.00;100249.34;5113834;28;20268;-71
2022/04/25 05:35:33;;;;;;;15.40;13.67;;;;;;;8.40;100.00;100251.94;5096335;28;20176;-71
2022/04/25 05:38:00;;;;;;;15.00;13.90;;;;;;;8.33;100.00;100258.28;5113679;28;20213;-71
2022/04/25 05:40:28;;;;;;;14.30;12.87;;;;;;;8.30;100.00;100261.88;5113859;28;20260;-71
2022/04/25 05:42:57;;;;;;;14.77;12.90;;;;;;;8.27;100.00;100264.59;5113734;28;20197;-71
2022/04/25 05:45:25;;;;;;;12.87;11.73;;;;;;;8.24;100.00;100264.72;5113758;28;20180;-69
2022/04/25 05:47:54;;;;;;;14.80;13.23;;;;;;;8.24;100.00;100269.94;5113603;28;20690;-69
2022/04/25 05:53:13;;;;;;;12.33;11.63;;;;;;;8.21;100.00;100280.47;5113900;28;20177;-69
2022/04/25 05:55:41;;;;;;;12.40;11.67;;;;;;;8.23;100.00;100281.28;5113860;28;20539;-70
2022/04/25 05:58:10;;;;;;;12.83;11.70;;;;;;;8.13;100.00;100275.53;5113511;28;20212;-70
2022/04/25 06:00:37;;;;;;;12.57;11.57;;;;;;;8.17;100.00;100284.97;5095274;28;20570;-71
2022/04/25 06:03:08;;;;;;;12.33;11.37;;;;;;;8.18;100.00;100278.00;5114009;28;20630;-71
2022/04/25 06:05:38;;;;;;;11.27;10.63;;;;;;;8.17;100.00;100287.56;5113524;28;20185;-71
2022/04/25 06:08:05;;;;;;;11.17;10.47;;;;;;;8.08;100.00;100287.94;5113649;28;20345;-69
2022/04/25 06:10:34;;;;;;;12.43;11.73;;;;;;;8.08;100.00;100295.75;5113656;28;20216;-70
2022/04/25 06:13:04;;;;;;;10.80;10.30;;;;;;;8.00;100.00;100298.66;5113841;28;20252;-71
2022/04/25 06:15:32;;;;;;;10.57;10.07;;;;;;;8.02;100.00;100302.97;5113823;28;20524;-71
2022/04/25 06:17:59;;;;;;;11.30;10.47;;;;;;;8.07;100.00;100306.22;5113283;28;20686;-71
2022/04/25 06:20:30;;;;;;;10.53;9.67;;;;;;;8.02;100.00;100300.34;5113708;28;20188;-71
2022/04/25 06:23:02;;;;;;;11.90;10.70;;;;;;;8.00;100.00;100301.25;5113421;28;20192;-71
2022/04/25 06:25:30;;;;;;;9.93;9.37;;;;;;;7.99;100.00;100299.53;5095204;28;20185;-70
2022/04/25 06:28:00;;;;;;;11.23;10.33;;;;;;;7.98;100.00;100308.25;5113479;28;20201;-71
2022/04/25 06:30:31;;;;;;;10.07;9.50;;;;;;;7.95;100.00;100311.00;5113301;28;20208;-71
2022/04/25 06:33:00;;;;;;;9.40;9.07;;;;;;;7.98;100.00;100305.66;5113290;28;20280;-71
2022/04/25 06:35:28;;;;;;;10.67;10.27;;;;;;;7.95;100.00;100307.53;5113517;28;20647;-71
2022/04/25 06:37:56;;;;;;;10.10;9.20;;;;;;;7.98;100.00;100312.63;5112986;28;20695;-70
2022/04/25 06:40:23;;;;;;;10.03;9.63;;;;;;;7.92;100.00;100308.50;5115834;28;20182;-71
2022/04/25 06:42:53;;;;;;;10.13;9.67;;;;;;;8.05;100.00;100313.25;5116976;28;20220;-70
2022/04/25 06:45:21;;;;;;;10.47;9.90;;;;;;;7.93;100.00;100310.22;5117070;28;20177;-71
2022/04/25 06:47:49;;;;;;;9.37;8.77;;;;;;;7.91;100.00;100318.97;5116903;28;20197;-71
2022/04/25 06:50:16;;;;;;;9.87;9.47;;;;;;;7.93;100.00;100318.03;5117210;28;20196;-70
2022/04/25 06:52:46;;;;;;;11.03;10.33;;;;;;;7.97;100.00;100310.94;5117402;28;20173;-71
2022/04/25 06:55:14;;;;;;;9.83;9.37;;;;;;;7.92;100.00;100320.66;5117103;28;20215;-70
2022/04/25 06:57:42;;;;;;;10.07;9.60;;;;;;;7.94;100.00;100319.72;5116632;28;20220;-70
2022/04/25 07:00:11;;;;;;;11.10;10.33;;;;;;;7.92;100.00;100318.06;5116970;28;20254;-70
2022/04/25 07:02:59;;;;;;;10.47;9.77;;;;;;;7.99;100.00;100325.59;5116975;28;20170;-70
2022/04/25 07:05:27;;;;;;;11.00;10.47;;;;;;;7.96;100.00;100330.94;5116654;28;20184;-68
2022/04/25 07:07:54;;;;;;;10.80;10.30;;;;;;;8.00;100.00;100329.94;5116479;28;20207;-68
2022/04/25 07:10:25;;;;;;;11.00;10.37;;;;;;;8.07;100.00;100327.06;5116806;28;20213;-68
2022/04/25 07:12:56;;;;;;;12.57;11.77;;;;;;;8.11;100.00;100328.69;5116744;28;20190;-68
2022/04/25 07:15:24;;;;;;;11.50;10.80;;;;;;;8.14;100.00;100331.16;5116695;28;20181;-68
2022/04/25 07:17:55;;;;;;;11.70;10.80;;;;;;;8.23;100.00;100338.66;5116316;28;20216;-68
2022/04/25 07:20:24;;;;;;;11.20;10.60;;;;;;;8.31;100.00;100341.81;5116716;28;20165;-68
2022/04/25 07:31:13;;;;;;;13.10;11.70;;;;;;;8.47;100.00;100344.72;5116463;28;20197;-68
2022/04/25 07:33:43;;;;;;;17.40;12.03;;;;;;;8.49;100.00;100341.13;5116068;28;20204;-68
2022/04/25 07:36:11;;;;;;;11.67;11.03;;;;;;;8.53;100.00;100347.09;5116134;28;20219;-68
2022/04/25 07:38:44;;;;;;;10.90;10.30;;;;;;;8.36;100.00;100347.75;5116054;28;20200;-68
2022/04/25 07:41:13;;;;;;;12.60;11.53;;;;;;;8.42;100.00;100344.03;5116488;28;20189;-68
2022/04/25 07:43:41;;;;;;;11.97;11.17;;;;;;;8.41;100.00;100351.00;5115846;28;20185;-68
2022/04/25 07:46:09;;;;;;;11.27;10.73;;;;;;;8.40;100.00;100357.16;5115915;28;20563;-68
2022/04/25 07:48:36;;;;;;;10.93;10.43;;;;;;;8.48;100.00;100357.69;5115797;28;20193;-68
2022/04/25 07:51:04;;;;;;;12.47;11.60;;;;;;;8.50;100.00;100361.13;5115801;28;20193;-68
2022/04/25 07:53:31;;;;;;;11.50;10.73;;;;;;;8.56;100.00;100362.63;5115620;28;20189;-68
2022/04/25 07:56:01;;;;;;;13.13;12.13;;;;;;;8.40;100.00;100369.34;5115466;28;20224;-68
2022/04/25 07:58:29;;;;;;;12.53;11.50;;;;;;;8.49;100.00;100372.44;5115627;28;20172;-68
2022/04/25 08:00:56;;;;;;;12.50;11.73;;;;;;;8.27;100.00;100381.94;5115850;28;20169;-68
2022/04/25 08:03:26;;;;;;;14.23;13.17;;;;;;;8.27;100.00;100374.13;5115865;28;20185;-68
2022/04/25 08:05:53;;;;;;;12.37;11.47;;;;;;;8.38;100.00;100379.00;5115355;28;20181;-68
2022/04/25 08:08:21;;;;;;;14.17;12.83;;;;;;;8.46;100.00;100374.31;5115483;28;20205;-67
2022/04/25 08:10:49;;;;;;;13.83;12.73;;;;;;;8.35;100.00;100379.94;5115429;28;20211;-67
2022/04/25 08:18:52;;;;;;;15.43;13.93;;;;;;;8.42;100.00;100391.84;5115558;28;20521;-67
2022/04/25 08:21:19;;;;;;;15.57;14.10;;;;;;;8.28;100.00;100391.47;5115225;28;20243;-68
2022/04/25 08:23:48;;;;;;;14.97;13.77;;;;;;;8.31;100.00;100393.13;5115093;28;20178;-68
2022/04/25 08:26:16;;;;;;;16.97;15.13;;;;;;;8.33;100.00;100397.38;5115019;28;20209;-68
2022/04/25 08:28:43;;;;;;;15.83;14.23;;;;;;;8.42;100.00;100404.88;5115507;28;20185;-69
2022/04/25 08:31:32;;;;;;;17.07;15.57;;;;;;;8.29;100.00;100403.63;5115366;28;20193;-70
2022/04/25 08:34:02;;;;;;;16.57;15.07;;;;;;;8.38;100.00;100411.16;5114931;28;20185;-70
2022/04/25 08:36:33;;;;;;;17.80;16.00;;;;;;;8.41;100.00;100410.16;5114990;28;20205;-69
2022/04/25 08:39:03;;;;;;;16.83;15.17;;;;;;;8.43;100.00;100416.16;5114858;28;20189;-69
2022/04/25 08:41:38;;;;;;;16.53;15.07;;;;;;;8.31;100.00;100417.47;5114755;28;20188;-69
2022/04/25 08:44:06;;;;;;;15.67;14.30;;;;;;;8.32;100.00;100413.09;5115082;28;20203;-68
2022/04/25 08:46:35;;;;;;;16.33;14.93;;;;;;;8.30;100.00;100417.53;5114621;28;20204;-68
2022/04/25 08:49:04;;;;;;;16.87;15.13;;;;;;;8.37;100.00;100429.47;5114593;28;20216;-67
2022/04/25 08:51:37;;;;;;;21.17;14.50;;;;;;;8.34;100.00;100427.78;5114622;28;20192;-67
2022/04/25 08:54:08;;;;;;;17.53;15.83;;;;;;;8.42;100.00;100433.59;5114792;28;20191;-67
2022/04/25 08:56:38;;;;;;;16.17;14.67;;;;;;;8.32;100.00;100439.19;5114629;28;20224;-67
2022/04/25 08:59:07;;;;;;;16.97;15.47;;;;;;;8.26;100.00;100435.88;5096858;28;20177;-68
2022/04/25 09:01:36;;;;;;;16.80;15.43;;;;;;;8.31;100.00;100443.53;5114090;28;20190;-68
2022/04/25 09:04:04;;;;;;;16.80;15.23;;;;;;;8.31;100.00;100442.69;5114227;28;20648;-68
2022/04/25 09:06:31;;;;;;;17.27;15.80;;;;;;;8.36;100.00;100449.50;5114263;28;20693;-68
2022/04/25 09:08:59;;;;;;;16.93;15.27;;;;;;;8.33;100.00;100452.16;5114259;28;20512;-68
2022/04/25 09:14:15;;;;;;;17.17;15.57;;;;;;;8.40;100.00;100463.25;5114128;28;20177;-67
2022/04/25 09:16:42;;;;;;;18.27;15.80;;;;;;;8.37;100.00;100458.16;5113950;28;20579;-67
2022/04/25 09:19:10;;;;;;;21.70;16.47;;;;;;;8.58;100.00;100459.13;5114345;28;20190;-67
2022/04/25 09:21:43;;;;;;;19.73;16.70;;;;;;;8.50;100.00;100464.59;5114579;28;20562;-67
2022/04/25 09:24:28;;;;;;;18.40;16.50;;;;;;;8.48;100.00;100463.81;5114322;28;20537;-67
2022/04/25 09:27:07;;;;;;;17.57;15.87;;;;;;;8.52;100.00;100461.06;5113942;28;20208;-68
2022/04/25 09:29:37;;;;;;;19.27;17.13;;;;;;;8.54;100.00;100466.22;5113964;28;20211;-67
2022/04/25 09:32:06;;;;;;;19.77;17.77;;;;;;;8.57;100.00;100467.84;5114405;28;20185;-67
2022/04/25 09:37:19;;;;;;;19.70;17.60;;;;;;;8.49;100.00;100476.81;5113745;28;20282;-67
2022/04/25 09:39:47;;;;;;;18.43;16.60;;;;;;;8.59;100.00;100468.66;5114146;28;20546;-67
2022/04/25 09:42:15;;;;;;;19.27;16.63;;;;;;;8.58;100.00;100472.19;5114089;28;20192;-67
2022/04/25 09:44:59;;;;;;;21.47;16.37;;;;;;;8.66;100.00;100472.75;5113934;28;20277;-67
2022/04/25 09:47:32;;;;;;;19.60;16.60;;;;;;;8.72;100.00;100469.91;5113646;28;20224;-67
2022/04/25 09:50:12;;;;;;;19.43;17.40;;;;;;;8.68;100.00;100466.53;5113702;28;20177;-67
2022/04/25 09:53:02;;;;;;;19.50;16.37;;;;;;;8.78;100.00;100467.03;5113672;28;20551;-67
2022/04/25 09:55:31;;;;;;;26.70;19.07;;;;;;;8.87;100.00;100477.16;5113864;28;20655;-67
2022/04/25 09:57:59;;;;;;;21.60;17.03;;;;;;;8.75;100.00;100473.25;5113424;28;20705;-67
2022/04/25 10:00:33;;;;;;;20.73;17.57;;;;;;;8.64;100.00;100474.53;5113662;28;20697;-67
2022/04/25 10:03:01;;;;;;;25.77;16.90;;;;;;;8.75;100.00;100478.47;5113916;28;20164;-67
2022/04/25 10:05:41;;;;;;;24.33;18.13;;;;;;;8.75;100.00;100472.38;5095708;28;20189;-68
2022/04/25 10:08:14;;;;;;;22.87;17.83;;;;;;;8.68;100.00;100478.75;5113532;28;20709;-69
2022/04/25 10:10:46;;;;;;;20.77;16.10;;;;;;;8.70;100.00;100476.91;5113604;28;20174;-69
2022/04/25 10:13:18;;;;;;;21.40;16.97;;;;;;;8.78;100.00;100477.47;5115103;28;20634;-69
2022/04/25 10:15:46;;;;;;;20.40;17.07;;;;;;;8.89;100.00;100477.94;5117916;28;20290;-69
2022/04/25 10:18:17;;;;;;;19.60;17.10;;;;;;;9.10;100.00;100478.88;5117581;28;20201;-69
2022/04/25 10:20:46;;;;;;;20.07;17.97;;;;;;;9.25;100.00;100478.25;5117866;28;20185;-69
2022/04/25 10:23:16;;;;;;;19.53;17.53;;;;;;;9.43;100.00;100476.69;5117821;28;20209;-69
2022/04/25 10:25:51;;;;;;;21.00;18.17;;;;;;;9.62;100.00;100485.47;5118043;28;20189;-68
2022/04/25 10:28:30;;;;;;;21.57;19.30;;;;;;;9.72;100.00;100499.03;5117644;28;20701;-68
2022/04/25 10:31:08;;;;;;;23.77;19.40;;;;;;;9.69;100.00;100490.44;5117859;28;20177;-68
2022/04/25 10:33:49;;;;;;;20.83;18.53;;;;;;;9.67;100.00;100495.75;5117568;28;20202;-69
2022/04/25 10:36:37;;;;;;;21.80;18.57;;;;;;;9.82;100.00;100496.88;5117413;28;20215;-70
2022/04/25 10:39:20;;;;;;;20.93;18.47;;;;;;;10.02;100.00;100493.44;5105697;28;20277;-69
2022/04/25 10:44:42;;;;;;;21.23;18.07;;;;;;;10.34;100.00;100492.91;5117166;28;20243;-69
2022/04/25 10:47:12;;;;;;;18.97;17.10;;;;;;;10.69;100.00;100499.19;5117007;28;20200;-69
2022/04/25 10:50:00;;;;;;;22.57;19.53;;;;;;;10.73;100.00;100494.66;5117281;28;20176;-69
2022/04/25 10:52:33;;;;;;;19.43;17.37;;;;;;;10.85;100.00;100493.25;5116923;28;20176;-69
2022/04/25 10:55:19;;;;;;;20.53;17.10;;;;;;;10.80;100.00;100495.25;5116754;28;20195;-69
2022/04/25 10:58:11;;;;;;;19.60;17.00;;;;;;;10.71;100.00;100489.47;5116828;28;20216;-67
2022/04/25 11:00:46;;;;;;;20.93;17.00;;;;;;;10.68;100.00;100494.88;5117021;28;20178;-67
2022/04/25 11:03:26;;;;;;;19.33;17.53;;;;;;;10.81;100.00;100491.69;5117021;28;20169;-67
2022/04/25 11:06:04;;;;;;;21.37;17.20;;;;;;;10.92;100.00;100492.03;5116961;28;20175;-67
2022/04/25 11:08:36;;;;;;;19.13;17.23;;;;;;;10.98;100.00;100486.53;5109338;28;20185;-68
2022/04/25 11:11:17;;;;;;;20.20;18.37;;;;;;;10.99;100.00;100486.44;5112989;28;20208;-68
2022/04/25 11:13:51;;;;;;;20.10;16.57;;;;;;;11.01;99.28;100483.78;5098566;28;20197;-68
2022/04/25 11:16:22;;;;;;;19.20;17.03;;;;;;;11.20;98.59;100497.69;5115943;28;20217;-67
2022/04/25 11:19:21;;;;;;;18.40;16.73;;;;;;;11.17;97.12;100499.63;5116569;28;20264;-67
2022/04/25 11:21:55;;;;;;;19.07;17.20;;;;;;;11.15;97.99;100504.94;5112513;28;20224;-67
2022/04/25 11:24:30;;;;;;;21.50;16.70;;;;;;;11.11;95.51;100506.00;5116086;28;20184;-67
2022/04/25 11:26:59;;;;;;;17.60;15.87;;;;;;;11.09;95.56;100507.84;5115877;28;20209;-67
2022/04/25 11:29:26;;;;;;;16.70;15.13;;;;;;;11.09;96.50;100502.59;5114624;28;20193;-67
2022/04/25 11:32:27;;;;;;;17.27;15.80;;;;;;;11.12;96.01;100505.06;5114433;28;20187;-69
2022/04/25 11:34:58;;;;;;;18.20;16.40;;;;;;;10.99;96.85;100511.78;5097819;28;20193;-68
2022/04/25 11:37:30;;;;;;;21.90;17.47;;;;;;;11.03;96.33;100508.13;5116679;28;20551;-68
2022/04/25 11:40:04;;;;;;;19.23;17.40;;;;;;;11.00;96.68;100514.38;5115423;28;20197;-67
2022/04/25 11:42:33;;;;;;;17.73;16.20;;;;;;;11.03;96.52;100514.22;5116152;28;20216;-67
2022/04/25 11:45:02;;;;;;;17.90;16.20;;;;;;;11.05;97.70;100521.16;5116087;28;20189;-67
2022/04/25 11:47:31;;;;;;;17.77;16.17;;;;;;;11.22;98.01;100514.22;5115851;28;20201;-67
2022/04/25 11:50:07;;;;;;;20.87;17.73;;;;;;;11.12;97.09;100518.16;5115670;28;20189;-67
2022/04/25 11:52:43;;;;;;;19.90;16.50;;;;;;;11.10;97.09;100519.16;5116042;28;20177;-67
2022/04/25 11:55:10;;;;;;;17.47;15.87;;;;;;;11.14;97.85;100521.56;5116015;28;20165;-67
2022/04/25 11:57:39;;;;;;;18.30;16.67;;;;;;;11.19;97.85;100519.56;5115802;28;20233;-67
2022/04/25 12:00:12;;;;;;;16.83;15.47;;;;;;;11.23;96.86;100526.38;5115634;28;20196;-67
2022/04/25 12:02:41;;;;;;;18.13;16.53;;;;;;;11.32;96.08;100525.09;5115871;28;20181;-67
2022/04/25 12:05:10;;;;;;;16.80;15.20;;;;;;;11.26;96.46;100526.22;5115529;28;20237;-67
2022/04/25 12:15:34;;;;;;;16.63;15.27;;;;;;;11.14;93.75;100533.81;5115408;28;20208;-67